Terminal Aerodrome Forecast
Issued by NWS Wichita, KS

Home | Current Version | Previous Version | Text Only | Print | Product List | Glossary On
Versions: 1 2 3 4 5 6 7 8 9 10 11 12 13 14 15 16 17 18
923
FTUS43 KICT 201442 AAB
TAFICT
TAF AMD
KICT 201442Z 2015/2112 34013KT P6SM VCTS OVC010CB
      TEMPO 2015/2018 -TSRA OVC007CB
     FM201800 35008KT P6SM BKN035
     FM211000 02003KT P6SM BKN030=

USA.gov is the U.S. government's official web portal to all federal, state and local government web resources and services.